createdAt,value
2023-03-10T00:00:49.077Z,12.10
2023-03-10T00:03:28.814Z,11.90
2023-03-10T00:06:06.643Z,11.80
2023-03-10T00:08:35.215Z,11.80
2023-03-10T00:11:06.031Z,11.70
2023-03-10T00:13:41.900Z,11.60
2023-03-10T00:16:25.007Z,11.60
2023-03-10T00:18:59.427Z,11.60
2023-03-10T00:21:42.203Z,11.60
2023-03-10T00:24:12.976Z,11.60
2023-03-10T00:26:49.860Z,11.60
2023-03-10T00:29:19.877Z,11.60
2023-03-10T00:31:52.459Z,11.60
2023-03-10T00:34:20.224Z,11.60
2023-03-10T00:36:54.640Z,11.70
2023-03-10T00:39:38.071Z,11.70
2023-03-10T00:42:08.414Z,11.90
2023-03-10T00:44:42.101Z,11.90
2023-03-10T00:47:12.134Z,11.90
2023-03-10T00:49:41.068Z,11.70
2023-03-10T00:52:11.906Z,11.50
2023-03-10T00:54:44.190Z,11.30
2023-03-10T00:57:18.927Z,11.20
2023-03-10T00:59:51.030Z,11.10
2023-03-10T01:02:48.272Z,11.00
2023-03-10T01:05:21.562Z,10.90
2023-03-10T01:07:54.547Z,10.80
2023-03-10T01:10:25.177Z,10.80
2023-03-10T01:12:52.946Z,10.70
2023-03-10T01:15:26.233Z,10.70
2023-03-10T01:17:56.861Z,10.70
2023-03-10T01:20:36.607Z,10.60
2023-03-10T01:23:20.148Z,10.60
2023-03-10T01:26:01.025Z,10.60
2023-03-10T01:28:35.062Z,10.60
2023-03-10T01:31:08.126Z,10.60
2023-03-10T01:33:50.014Z,10.60
2023-03-10T01:36:26.488Z,10.60
2023-03-10T01:38:58.166Z,10.60
2023-03-10T01:41:31.842Z,10.60
2023-03-10T01:44:05.848Z,10.70
2023-03-10T01:46:54.544Z,10.70
2023-03-10T01:49:41.730Z,10.80
2023-03-10T01:52:17.894Z,10.80
2023-03-10T01:54:56.408Z,10.90
2023-03-10T01:57:43.484Z,10.90
2023-03-10T02:00:15.158Z,11.00
2023-03-10T02:03:21.167Z,11.00
2023-03-10T02:05:56.382Z,11.00
2023-03-10T02:08:44.633Z,11.00
2023-03-10T02:11:42.588Z,11.10
2023-03-10T02:14:18.658Z,11.10
2023-03-10T02:16:54.297Z,11.20
2023-03-10T02:19:44.396Z,11.20
2023-03-10T02:22:18.501Z,11.30
2023-03-10T02:25:21.069Z,11.40
2023-03-10T02:27:51.498Z,11.40
2023-03-10T02:30:39.333Z,11.50
2023-03-10T02:33:25.028Z,11.60
2023-03-10T02:36:05.472Z,11.60
2023-03-10T02:38:42.767Z,11.60
2023-03-10T02:41:22.614Z,11.70
2023-03-10T02:44:00.225Z,11.70
2023-03-10T02:46:34.870Z,11.80
2023-03-10T02:49:09.047Z,11.80
2023-03-10T02:51:47.707Z,11.90
2023-03-10T02:54:20.457Z,11.90
2023-03-10T02:56:57.763Z,11.90
2023-03-10T02:59:28.068Z,11.90
2023-03-10T03:02:09.851Z,12.00
2023-03-10T03:04:40.282Z,11.90
2023-03-10T03:07:09.885Z,12.00
2023-03-10T03:09:42.365Z,12.00
2023-03-10T03:12:18.123Z,12.00
2023-03-10T03:14:56.851Z,12.00
2023-03-10T03:17:31.255Z,12.00
2023-03-10T03:20:13.657Z,12.00
2023-03-10T03:22:58.114Z,12.00
2023-03-10T03:25:44.421Z,12.00
2023-03-10T03:28:18.843Z,12.00
2023-03-10T03:30:54.173Z,12.00
2023-03-10T03:33:23.062Z,12.00
2023-03-10T03:35:50.669Z,12.00
2023-03-10T03:38:28.632Z,12.00
2023-03-10T03:41:02.432Z,11.90
2023-03-10T03:43:41.154Z,11.90
2023-03-10T03:46:12.457Z,11.90
2023-03-10T03:48:43.435Z,11.90
2023-03-10T03:51:16.828Z,11.90
2023-03-10T03:53:44.898Z,11.80
2023-03-10T03:56:16.460Z,11.80
2023-03-10T03:59:03.062Z,11.90
2023-03-10T04:01:35.547Z,11.90
2023-03-10T04:04:09.346Z,12.00
2023-03-10T04:06:42.036Z,12.10
2023-03-10T04:09:14.089Z,12.10
2023-03-10T04:11:59.260Z,12.10
2023-03-10T04:14:41.549Z,12.20
2023-03-10T04:17:14.961Z,12.20
2023-03-10T04:19:51.294Z,11.90
2023-03-10T04:22:32.503Z,11.70
2023-03-10T04:25:02.523Z,11.40
2023-03-10T04:27:33.949Z,11.20
2023-03-10T04:30:12.185Z,11.00
2023-03-10T04:32:50.045Z,11.00
2023-03-10T04:35:22.661Z,10.90
2023-03-10T04:37:55.957Z,10.90
2023-03-10T04:40:29.868Z,10.90
2023-03-10T04:43:07.051Z,10.90
2023-03-10T04:45:41.058Z,10.80
2023-03-10T04:48:14.052Z,10.80
2023-03-10T04:50:44.680Z,10.80
2023-03-10T04:53:14.901Z,10.70
2023-03-10T04:55:51.237Z,10.70
2023-03-10T04:58:22.001Z,10.60
2023-03-10T05:01:02.175Z,10.60
2023-03-10T05:03:39.153Z,10.60
2023-03-10T05:06:16.322Z,10.70
2023-03-10T05:08:58.320Z,10.70
2023-03-10T05:11:30.995Z,10.80
2023-03-10T05:14:08.180Z,10.80
2023-03-10T05:16:48.549Z,10.90
2023-03-10T05:19:25.214Z,10.90
2023-03-10T05:21:59.834Z,11.10
2023-03-10T05:24:33.032Z,11.20
2023-03-10T05:27:03.043Z,11.30
2023-03-10T05:29:41.452Z,11.40
2023-03-10T05:32:15.980Z,11.50
2023-03-10T05:34:55.112Z,11.60
2023-03-10T05:37:29.123Z,11.60
2023-03-10T05:40:12.144Z,11.70
2023-03-10T05:42:42.789Z,11.70
2023-03-10T05:45:17.198Z,11.70
2023-03-10T05:47:48.548Z,11.80
2023-03-10T05:50:24.709Z,11.80
2023-03-10T05:52:54.730Z,11.80
2023-03-10T05:55:32.733Z,11.80
2023-03-10T05:58:07.866Z,11.90
2023-03-10T06:00:35.632Z,11.90
2023-03-10T06:03:09.561Z,11.90
2023-03-10T06:05:40.164Z,11.90
2023-03-10T06:08:08.232Z,11.90
2023-03-10T06:10:39.285Z,11.90
2023-03-10T06:13:11.860Z,11.90
2023-03-10T06:15:42.390Z,11.90
2023-03-10T06:18:17.810Z,12.00
2023-03-10T06:20:49.283Z,12.10
2023-03-10T06:23:18.367Z,12.10
2023-03-10T06:26:02.626Z,12.10
2023-03-10T06:28:39.726Z,12.20
2023-03-10T06:31:22.076Z,12.20
2023-03-10T06:33:49.932Z,12.00
2023-03-10T06:36:48.992Z,11.60
2023-03-10T06:39:26.595Z,11.10
2023-03-10T06:41:55.475Z,10.60
2023-03-10T06:44:29.069Z,10.30
2023-03-10T06:46:59.195Z,10.00
2023-03-10T06:52:15.509Z,9.80
2023-03-10T06:54:45.898Z,9.70
2023-03-10T07:00:45.110Z,9.50
2023-03-10T07:03:22.813Z,9.50
2023-03-10T07:06:03.922Z,9.50
2023-03-10T07:08:41.077Z,9.50
2023-03-10T07:11:14.575Z,9.50
2023-03-10T07:13:47.862Z,9.50
2023-03-10T07:16:26.055Z,9.40
2023-03-10T07:18:56.742Z,9.30
2023-03-10T07:21:28.575Z,9.30
2023-03-10T07:24:10.648Z,9.30
2023-03-10T07:26:44.492Z,9.30
2023-03-10T07:29:28.995Z,9.20
2023-03-10T07:32:11.856Z,9.20
2023-03-10T07:38:31.880Z,9.20
2023-03-10T07:50:04.278Z,9.20
2023-03-10T07:52:40.003Z,9.30
2023-03-10T07:55:14.766Z,9.30
2023-03-10T07:57:46.395Z,9.30
2023-03-10T08:00:24.892Z,9.30
2023-03-10T08:03:01.835Z,9.30
2023-03-10T08:05:41.944Z,9.30
2023-03-10T08:08:19.963Z,9.40
2023-03-10T08:10:51.589Z,9.40
2023-03-10T08:13:24.806Z,9.50
2023-03-10T08:15:53.439Z,9.50
2023-03-10T08:18:26.176Z,9.60
2023-03-10T08:20:54.288Z,9.70
2023-03-10T08:23:30.396Z,9.70
2023-03-10T08:26:05.065Z,9.70
2023-03-10T08:28:51.326Z,9.60
2023-03-10T08:31:22.743Z,9.60
2023-03-10T08:33:59.106Z,9.60
2023-03-10T08:36:31.588Z,9.50
2023-03-10T08:39:11.854Z,9.50
2023-03-10T08:41:51.381Z,9.60
2023-03-10T08:44:26.487Z,9.70
2023-03-10T08:46:56.745Z,9.70
2023-03-10T08:49:25.387Z,9.70
2023-03-10T08:51:58.875Z,9.70
2023-03-10T08:54:36.280Z,9.90
2023-03-10T08:57:04.989Z,10.00
2023-03-10T08:59:34.329Z,10.20
2023-03-10T09:02:34.982Z,10.30
2023-03-10T09:05:04.985Z,10.50
2023-03-10T09:07:45.531Z,10.60
2023-03-10T09:10:17.458Z,10.80
2023-03-10T09:12:46.506Z,10.90
2023-03-10T09:15:15.926Z,11.00
2023-03-10T09:17:52.035Z,11.10
2023-03-10T09:20:27.635Z,11.20
2023-03-10T09:23:01.569Z,11.30
2023-03-10T09:25:32.910Z,11.30
2023-03-10T09:28:04.433Z,11.30
2023-03-10T09:30:38.044Z,11.30
2023-03-10T09:33:17.801Z,11.30
2023-03-10T09:38:46.192Z,11.40
2023-03-10T09:41:38.085Z,11.40
2023-03-10T09:44:35.204Z,11.50
2023-03-10T09:47:46.821Z,11.60
2023-03-10T09:50:38.613Z,11.60
2023-03-10T09:53:30.042Z,11.60
2023-03-10T09:55:58.196Z,11.60
2023-03-10T09:58:58.240Z,11.60
2023-03-10T10:01:34.397Z,11.60
2023-03-10T10:04:34.324Z,11.50
2023-03-10T10:07:17.730Z,11.50
2023-03-10T10:10:00.665Z,11.40
2023-03-10T10:12:34.247Z,11.40
2023-03-10T10:15:14.624Z,11.30
2023-03-10T10:18:21.429Z,11.40
2023-03-10T10:21:11.790Z,11.40
2023-03-10T10:23:59.541Z,11.40
2023-03-10T10:26:41.003Z,11.40
2023-03-10T10:29:25.054Z,11.40
2023-03-10T10:32:26.131Z,11.40
2023-03-10T10:35:18.235Z,11.40
2023-03-10T10:38:26.249Z,11.40
2023-03-10T10:41:16.733Z,11.30
2023-03-10T10:43:48.692Z,11.30
2023-03-10T10:46:33.314Z,11.20
2023-03-10T10:49:40.754Z,11.20
2023-03-10T10:52:28.379Z,11.20
2023-03-10T10:55:32.077Z,11.30
2023-03-10T10:58:16.962Z,11.30
2023-03-10T11:00:59.420Z,11.30
2023-03-10T11:03:45.734Z,11.30
2023-03-10T11:06:27.759Z,11.30
2023-03-10T11:09:28.977Z,11.30
2023-03-10T11:12:30.625Z,11.40
2023-03-10T11:15:31.540Z,11.40
2023-03-10T11:18:36.030Z,11.40
2023-03-10T11:21:39.827Z,11.40
2023-03-10T11:24:18.970Z,11.40
2023-03-10T11:27:05.585Z,11.40
2023-03-10T11:29:58.037Z,11.40
2023-03-10T11:32:54.907Z,11.40
2023-03-10T11:35:39.649Z,11.50
2023-03-10T11:38:23.875Z,11.40
2023-03-10T11:41:31.093Z,11.40
2023-03-10T11:44:26.792Z,11.40
2023-03-10T11:47:29.293Z,11.40
2023-03-10T11:50:33.089Z,11.30
2023-03-10T11:53:32.130Z,11.20
2023-03-10T11:56:09.138Z,10.90
2023-03-10T11:58:52.600Z,10.50
2023-03-10T12:01:42.250Z,10.20
2023-03-10T12:04:35.711Z,10.00
2023-03-10T12:07:17.782Z,9.80
2023-03-10T12:10:00.904Z,9.80
2023-03-10T12:12:44.676Z,9.80
2023-03-10T12:15:36.225Z,9.80
2023-03-10T12:18:10.128Z,9.90
2023-03-10T12:21:27.116Z,10.00
2023-03-10T12:24:27.347Z,10.00
2023-03-10T12:27:22.671Z,10.00
2023-03-10T12:30:01.527Z,10.00
2023-03-10T12:32:53.533Z,10.00
2023-03-10T12:35:45.120Z,10.10
2023-03-10T12:38:46.978Z,10.20
2023-03-10T12:41:35.336Z,10.30
2023-03-10T12:44:45.757Z,10.40
2023-03-10T12:47:37.788Z,10.60
2023-03-10T12:50:18.111Z,10.80
2023-03-10T12:53:03.147Z,11.00
2023-03-10T12:55:37.573Z,11.10
2023-03-10T12:58:43.665Z,11.20
2023-03-10T13:01:28.230Z,11.30
2023-03-10T13:04:29.439Z,11.30
2023-03-10T13:07:22.131Z,11.30
2023-03-10T13:16:27.251Z,12.40
2023-03-10T13:22:01.749Z,12.90
2023-03-10T13:24:46.376Z,12.80
2023-03-10T13:27:42.939Z,12.70
2023-03-10T13:30:39.573Z,12.60
2023-03-10T13:33:42.993Z,12.40
2023-03-10T13:36:40.298Z,12.20
2023-03-10T13:39:16.532Z,12.00
2023-03-10T13:41:57.898Z,12.00
2023-03-10T13:44:41.527Z,11.90
2023-03-10T13:47:28.337Z,11.90
2023-03-10T13:50:03.405Z,11.90
2023-03-10T13:52:32.874Z,11.90
2023-03-10T13:55:13.957Z,11.80
2023-03-10T13:58:00.966Z,11.80
2023-03-10T14:00:29.917Z,11.80
2023-03-10T14:02:59.878Z,12.00
2023-03-10T14:05:58.573Z,12.00
2023-03-10T14:08:31.360Z,12.20
2023-03-10T14:11:24.205Z,12.30
2023-03-10T14:14:05.589Z,12.30
2023-03-10T14:16:53.394Z,12.10
2023-03-10T14:19:50.381Z,12.00
2023-03-10T14:22:43.953Z,11.80
2023-03-10T14:25:25.287Z,11.70
2023-03-10T14:28:08.242Z,11.70
2023-03-10T14:30:54.488Z,11.60
2023-03-10T14:33:30.091Z,11.60
2023-03-10T14:36:09.416Z,11.60
2023-03-10T14:38:46.645Z,11.50
2023-03-10T14:41:39.150Z,11.50
2023-03-10T14:44:26.962Z,11.60
2023-03-10T14:48:00.960Z,11.70
2023-03-10T14:50:45.015Z,12.00
2023-03-10T14:53:28.762Z,12.40
2023-03-10T14:56:23.264Z,12.60
2023-03-10T14:59:02.492Z,12.90
2023-03-10T15:01:41.682Z,12.90
2023-03-10T15:04:22.818Z,12.80
2023-03-10T15:07:03.682Z,12.60
2023-03-10T15:10:08.881Z,12.60
2023-03-10T15:12:43.731Z,12.50
2023-03-10T15:15:29.696Z,12.30
2023-03-10T15:18:03.404Z,12.20
2023-03-10T15:20:39.303Z,12.10
2023-03-10T15:23:25.574Z,12.00
2023-03-10T15:25:55.125Z,11.90
2023-03-10T15:28:34.920Z,11.70
2023-03-10T15:31:09.961Z,11.40
2023-03-10T15:33:55.654Z,11.10
2023-03-10T15:36:34.408Z,10.80
2023-03-10T15:39:30.679Z,10.40
2023-03-10T15:42:08.241Z,9.90
2023-03-10T15:44:43.771Z,9.40
2023-03-10T15:47:24.649Z,9.20
2023-03-10T15:50:04.628Z,9.10
2023-03-10T15:52:35.961Z,9.00
2023-03-10T15:55:20.609Z,8.90
2023-03-10T15:58:02.707Z,8.90
2023-03-10T16:00:45.207Z,9.00
2023-03-10T16:03:41.848Z,9.00
2023-03-10T16:06:14.274Z,8.90
2023-03-10T16:08:53.111Z,8.90
2023-03-10T16:11:32.405Z,8.80
2023-03-10T16:14:14.886Z,8.80
2023-03-10T16:16:47.764Z,8.80
2023-03-10T16:19:32.733Z,8.80
2023-03-10T16:22:10.744Z,8.70
2023-03-10T16:24:50.708Z,8.70
2023-03-10T16:27:29.295Z,8.60
2023-03-10T16:30:18.444Z,8.70
2023-03-10T16:32:55.497Z,8.60
2023-03-10T16:35:36.564Z,8.60
2023-03-10T16:38:20.262Z,8.60
2023-03-10T16:41:01.252Z,8.50
2023-03-10T16:43:37.819Z,8.60
2023-03-10T16:46:33.933Z,8.60
2023-03-10T16:49:17.885Z,8.50
2023-03-10T16:51:51.694Z,8.40
2023-03-10T16:54:30.194Z,8.30
2023-03-10T16:57:01.856Z,8.30
2023-03-10T16:59:40.376Z,8.30
2023-03-10T17:02:25.590Z,8.20
2023-03-10T17:05:00.683Z,8.20
2023-03-10T17:07:43.488Z,8.30
2023-03-10T17:10:34.524Z,8.30
2023-03-10T17:13:10.872Z,8.30
2023-03-10T17:15:42.010Z,8.30
2023-03-10T17:18:25.264Z,8.30
2023-03-10T17:21:22.507Z,8.30
2023-03-10T17:24:26.049Z,8.30
2023-03-10T17:27:20.275Z,8.30
2023-03-10T17:30:30.451Z,8.40
2023-03-10T17:33:09.685Z,8.40
2023-03-10T17:35:45.252Z,8.40
2023-03-10T17:39:11.466Z,8.40
2023-03-10T17:53:34.133Z,8.10
2023-03-10T17:56:09.234Z,8.10
2023-03-10T17:59:11.067Z,8.00
2023-03-10T18:01:39.418Z,8.00
2023-03-10T18:04:17.998Z,8.00
2023-03-10T18:06:52.311Z,8.00
2023-03-10T18:09:34.727Z,8.10
2023-03-10T18:12:16.715Z,8.10
2023-03-10T18:15:14.433Z,8.10
2023-03-10T18:17:53.043Z,8.20
2023-03-10T18:20:24.137Z,8.20
2023-03-10T18:23:01.434Z,8.20
2023-03-10T18:25:29.609Z,8.20
2023-03-10T18:28:08.330Z,8.20
2023-03-10T18:30:57.369Z,8.20
2023-03-10T18:33:35.719Z,8.20
2023-03-10T18:36:18.310Z,8.20
2023-03-10T18:39:00.008Z,8.10
2023-03-10T18:41:33.905Z,8.00
2023-03-10T18:44:07.110Z,7.90
2023-03-10T18:46:48.201Z,7.90
2023-03-10T18:49:27.514Z,7.80
2023-03-10T18:51:58.245Z,7.80
2023-03-10T18:55:13.508Z,7.60
2023-03-10T18:58:07.305Z,7.50
2023-03-10T19:01:01.689Z,7.50
2023-03-10T19:03:37.741Z,7.40
2023-03-10T19:09:21.422Z,7.20
2023-03-10T19:12:08.213Z,7.10
2023-03-10T19:14:52.353Z,7.10
2023-03-10T19:17:29.035Z,7.00
2023-03-10T19:20:13.389Z,7.00
2023-03-10T19:22:58.673Z,7.00
2023-03-10T19:25:34.737Z,7.10
2023-03-10T19:28:14.165Z,7.10
2023-03-10T19:30:58.767Z,7.20
2023-03-10T19:36:23.633Z,7.30
2023-03-10T19:38:59.692Z,7.30
2023-03-10T19:41:48.651Z,7.40
2023-03-10T19:44:22.567Z,7.40
2023-03-10T19:47:19.399Z,7.30
2023-03-10T19:49:48.573Z,7.30
2023-03-10T19:52:33.960Z,7.20
2023-03-10T19:55:37.562Z,7.20
2023-03-10T19:58:14.011Z,7.20
2023-03-10T20:00:49.958Z,7.20
2023-03-10T20:03:29.184Z,7.30
2023-03-10T20:06:13.028Z,7.30
2023-03-10T20:08:51.875Z,7.30
2023-03-10T20:11:19.839Z,7.30
2023-03-10T20:13:59.420Z,7.30
2023-03-10T20:16:36.075Z,7.40
2023-03-10T20:19:07.733Z,7.30
2023-03-10T20:21:45.962Z,7.30
2023-03-10T20:24:36.685Z,7.20
2023-03-10T20:27:15.956Z,7.20
2023-03-10T20:29:49.775Z,7.20
2023-03-10T20:32:36.059Z,7.30
2023-03-10T20:35:08.047Z,7.30
2023-03-10T20:37:51.887Z,7.30
2023-03-10T20:40:28.409Z,7.30
2023-03-10T20:43:06.185Z,7.40
2023-03-10T20:45:39.576Z,7.40
2023-03-10T20:48:32.332Z,7.40
2023-03-10T20:51:17.531Z,7.50
2023-03-10T20:54:01.929Z,7.50
2023-03-10T20:56:42.214Z,7.50
2023-03-10T21:02:16.625Z,7.60
2023-03-10T21:05:20.033Z,7.70
2023-03-10T21:07:58.850Z,7.70
2023-03-10T21:10:42.151Z,7.70
2023-03-10T21:13:32.748Z,7.60
2023-03-10T21:16:05.343Z,7.60
2023-03-10T21:18:40.658Z,7.60
2023-03-10T21:21:29.075Z,7.70
2023-03-10T21:24:08.719Z,7.60
2023-03-10T21:27:09.049Z,7.70
2023-03-10T21:29:42.873Z,7.60
2023-03-10T21:32:22.482Z,7.60
2023-03-10T21:35:06.021Z,7.60
2023-03-10T21:37:42.308Z,7.60
2023-03-10T21:40:16.164Z,7.60
2023-03-10T21:43:01.469Z,7.50
2023-03-10T21:45:40.862Z,7.50
2023-03-10T21:48:24.715Z,7.60
2023-03-10T21:51:22.947Z,7.60
2023-03-10T21:53:58.362Z,7.60
2023-03-10T21:56:29.009Z,7.70
2023-03-10T21:58:58.939Z,7.70
2023-03-10T22:04:39.850Z,7.80
2023-03-10T22:07:17.384Z,7.90
2023-03-10T22:10:04.404Z,7.90
2023-03-10T22:12:52.354Z,7.90
2023-03-10T22:15:31.156Z,8.00
2023-03-10T22:18:06.615Z,8.00
2023-03-10T22:20:37.272Z,8.00
2023-03-10T22:23:10.029Z,7.90
2023-03-10T22:29:21.286Z,7.90
2023-03-10T22:32:07.614Z,7.80
2023-03-10T22:34:51.402Z,7.80
2023-03-10T22:37:33.132Z,7.80
2023-03-10T22:40:14.819Z,7.70
2023-03-10T22:43:03.689Z,7.70
2023-03-10T22:45:42.200Z,7.70
2023-03-10T22:48:15.468Z,7.70
2023-03-10T22:51:03.345Z,7.70
2023-03-10T22:53:38.853Z,7.80
2023-03-10T22:56:15.171Z,7.80
2023-03-10T22:58:49.007Z,7.80
2023-03-10T23:01:34.615Z,7.80
2023-03-10T23:04:18.017Z,7.80
2023-03-10T23:06:51.774Z,7.90
2023-03-10T23:09:25.284Z,7.90
2023-03-10T23:12:00.831Z,7.90
2023-03-10T23:14:33.510Z,7.90
2023-03-10T23:17:23.647Z,8.00
2023-03-10T23:19:57.189Z,8.00
2023-03-10T23:22:31.517Z,8.00
2023-03-10T23:25:20.898Z,8.00
2023-03-10T23:27:55.959Z,8.00
2023-03-10T23:30:34.383Z,8.00
2023-03-10T23:33:05.847Z,8.00
2023-03-10T23:35:59.244Z,7.90
2023-03-10T23:38:37.635Z,7.90
2023-03-10T23:41:06.282Z,7.90
2023-03-10T23:43:45.107Z,7.90
2023-03-10T23:46:27.980Z,7.90
2023-03-10T23:49:01.775Z,7.90
2023-03-10T23:51:40.046Z,7.90
2023-03-10T23:54:25.792Z,7.90
2023-03-10T23:57:12.450Z,7.90
2023-03-10T23:59:49.015Z,7.80
